Bembridge Airport

Jump to: basic info | weather | frequencies | runways | comments

Related pages: nearby airports | nearby navaids | notams | map

Basic information (top)

Codes: BBP EGHJ
Location: lon 50.678101, lat -1.109440, elev 53 ft / 16 m msl
Status: small_airport
Scheduled airline service: no
Links: Wikipedia Mobile

Weather (top)

Current conditions for Southampton Airport 19nm (35km) NNW (rec'd 2014/09/01 21:20Z):

EGHI 012120Z 00000KT 8000 FEW004 SCT014 BKN019 16/15 Q1021

Airport forecast for Southampton Airport 19nm (35km) NNW (rec'd 2010/07/06 05:26Z):

TAF TAF EGHI 060526Z 0606/0618 20006KT CAVOK

Frequencies (top)

Verify before use: may be inaccurate or out of date.

A/G: 123.25 MHz (Bembridge A/G)

Runways (top)

12/30: 6,027 x 75 ft (1,837 x 23 m) — other (Concrete) — not lighted

Latest comments (top)

Try Sandown too: Sandown has been saved ...suggest ... [read]

Great airfield, friendly and helpful staff: It's great Bembridge is fully open ... [read]

new bembridge web site: Website now at eghj.co.uk as well as ... [read]

Bembridge is now open all week for PPR: Bembridge is now open all week for PPR ... [read]

Bembridge Airport: Bembridge is now open all week for PPR ... [read]

More... (top)

See also NOTAMs and nearby airports and navaids, or visit the Bembridge Airport page at the main OurAirports website..